createdAt,value
2022-10-19T00:01:15.497Z,36.25
2022-10-19T00:03:44.736Z,39.78
2022-10-19T00:06:15.713Z,57.15
2022-10-19T00:08:46.285Z,47.00
2022-10-19T00:11:14.785Z,45.25
2022-10-19T00:13:42.686Z,123.88
2022-10-19T00:16:13.075Z,83.60
2022-10-19T00:18:41.372Z,79.55
2022-10-19T00:21:11.345Z,55.25
2022-10-19T00:23:39.673Z,74.63
2022-10-19T00:26:09.276Z,54.25
2022-10-19T00:28:37.247Z,65.35
2022-10-19T00:31:06.141Z,81.15
2022-10-19T00:33:34.245Z,42.83
2022-10-19T00:36:02.711Z,68.30
2022-10-19T00:38:30.643Z,89.82
2022-10-19T00:40:58.525Z,90.50
2022-10-19T00:43:31.365Z,69.07
2022-10-19T00:45:59.333Z,108.55
2022-10-19T00:48:31.530Z,148.50
2022-10-19T00:51:00.808Z,113.53
2022-10-19T00:53:31.559Z,95.25
2022-10-19T00:56:04.248Z,74.68
2022-10-19T00:58:33.993Z,24.67
2022-10-19T01:01:05.437Z,153.63
2022-10-19T01:03:34.298Z,43.70
2022-10-19T01:06:02.871Z,112.70
2022-10-19T01:08:31.457Z,113.38
2022-10-19T01:11:15.337Z,148.15
2022-10-19T01:13:52.210Z,52.63
2022-10-19T01:16:30.729Z,17.17
2022-10-19T01:19:11.812Z,26.75
2022-10-19T01:21:46.068Z,33.03
2022-10-19T01:24:45.475Z,51.13
2022-10-19T01:27:42.246Z,53.42
2022-10-19T01:30:16.616Z,70.80
2022-10-19T01:33:12.761Z,54.00
2022-10-19T01:35:47.272Z,46.35
2022-10-19T01:38:29.114Z,74.43
2022-10-19T01:41:03.981Z,64.60
2022-10-19T01:43:40.020Z,66.25
2022-10-19T01:46:14.544Z,110.05
2022-10-19T01:48:47.967Z,130.65
2022-10-19T01:51:21.309Z,97.95
2022-10-19T01:53:53.532Z,99.80
2022-10-19T01:56:25.402Z,101.50
2022-10-19T01:58:57.166Z,146.90
2022-10-19T02:01:31.249Z,96.03
2022-10-19T02:04:00.621Z,64.07
2022-10-19T02:06:28.970Z,101.53
2022-10-19T02:08:57.038Z,87.05
2022-10-19T02:11:25.677Z,115.70
2022-10-19T02:13:57.485Z,78.43
2022-10-19T02:16:31.443Z,127.00
2022-10-19T02:19:01.180Z,45.00
2022-10-19T02:21:29.895Z,79.25
2022-10-19T02:23:57.760Z,67.25
2022-10-19T02:26:25.662Z,56.95
2022-10-19T02:28:55.986Z,80.05
2022-10-19T02:31:24.615Z,55.75
2022-10-19T02:33:54.686Z,69.95
2022-10-19T02:36:22.988Z,62.22
2022-10-19T02:38:50.943Z,48.67
2022-10-19T02:41:24.572Z,56.00
2022-10-19T02:44:00.050Z,35.30
2022-10-19T02:46:32.028Z,42.28
2022-10-19T02:49:05.218Z,44.55
2022-10-19T02:51:35.172Z,21.48
2022-10-19T02:54:05.256Z,16.10
2022-10-19T02:56:34.016Z,16.00
2022-10-19T02:59:02.218Z,19.70
2022-10-19T03:01:30.149Z,10.25
2022-10-19T03:03:57.977Z,10.68
2022-10-19T03:06:27.271Z,12.48
2022-10-19T03:08:55.104Z,13.55
2022-10-19T03:11:22.975Z,17.23
2022-10-19T03:13:50.852Z,9.52
2022-10-19T03:16:19.341Z,11.38
2022-10-19T03:18:49.205Z,9.15
2022-10-19T03:21:17.720Z,12.10
2022-10-19T03:23:47.152Z,19.58
2022-10-19T03:26:17.029Z,15.27
2022-10-19T03:28:44.960Z,10.57
2022-10-19T03:31:13.223Z,9.10
2022-10-19T03:33:41.080Z,14.43
2022-10-19T03:36:21.636Z,10.73
2022-10-19T03:38:53.067Z,14.27
2022-10-19T03:41:21.969Z,27.13
2022-10-19T03:43:50.183Z,36.97
2022-10-19T03:46:18.438Z,30.42
2022-10-19T03:48:47.015Z,21.02
2022-10-19T03:51:16.573Z,19.63
2022-10-19T03:53:44.780Z,29.70
2022-10-19T03:56:15.859Z,36.05
2022-10-19T03:58:45.280Z,27.98
2022-10-19T04:01:15.920Z,21.20
2022-10-19T04:03:43.958Z,27.33
2022-10-19T04:06:18.204Z,28.40
2022-10-19T04:08:50.491Z,27.38
2022-10-19T04:11:22.416Z,20.73
2022-10-19T04:13:50.590Z,18.33
2022-10-19T04:16:19.808Z,19.58
2022-10-19T04:18:48.218Z,15.05
2022-10-19T04:21:23.445Z,23.58
2022-10-19T04:23:52.371Z,19.77
2022-10-19T04:26:21.869Z,19.10
2022-10-19T04:28:50.113Z,22.48
2022-10-19T04:31:18.043Z,13.70
2022-10-19T04:36:19.377Z,17.17
2022-10-19T04:38:47.341Z,25.75
2022-10-19T04:41:17.844Z,23.08
2022-10-19T04:43:47.939Z,17.90
2022-10-19T04:46:17.967Z,20.23
2022-10-19T04:48:47.469Z,20.38
2022-10-19T04:51:16.228Z,16.40
2022-10-19T04:53:45.466Z,16.67
2022-10-19T04:56:16.366Z,22.73
2022-10-19T04:58:45.049Z,12.90
2022-10-19T05:01:16.385Z,13.20
2022-10-19T05:03:44.903Z,12.10
2022-10-19T05:06:14.211Z,11.50
2022-10-19T05:08:42.631Z,9.25
2022-10-19T05:11:12.297Z,15.25
2022-10-19T05:13:40.443Z,16.52
2022-10-19T05:16:11.716Z,8.38
2022-10-19T05:18:41.122Z,10.85
2022-10-19T05:21:11.100Z,12.27
2022-10-19T05:23:39.807Z,9.15
2022-10-19T05:26:09.128Z,12.82
2022-10-19T05:28:37.620Z,11.27
2022-10-19T05:31:10.481Z,11.43
2022-10-19T05:33:38.855Z,18.45
2022-10-19T05:36:16.848Z,48.78
2022-10-19T05:38:45.133Z,51.47
2022-10-19T05:41:13.627Z,54.25
2022-10-19T05:43:42.388Z,60.63
2022-10-19T05:46:12.201Z,43.75
2022-10-19T05:48:40.795Z,53.42
2022-10-19T05:51:10.060Z,51.90
2022-10-19T05:53:40.129Z,46.80
2022-10-19T05:56:10.031Z,53.38
2022-10-19T05:58:37.878Z,58.90
2022-10-19T06:01:06.055Z,64.15
2022-10-19T06:03:33.929Z,61.42
2022-10-19T06:06:04.029Z,58.88
2022-10-19T06:08:31.968Z,54.40
2022-10-19T06:11:08.594Z,53.20
2022-10-19T06:13:36.843Z,50.10
2022-10-19T06:16:05.216Z,58.13
2022-10-19T06:18:33.169Z,54.80
2022-10-19T06:21:03.856Z,52.10
2022-10-19T06:23:32.102Z,49.92
2022-10-19T06:26:00.445Z,48.83
2022-10-19T06:28:29.644Z,41.65
2022-10-19T06:30:58.911Z,44.17
2022-10-19T06:33:28.367Z,49.35
2022-10-19T06:35:56.235Z,43.50
2022-10-19T06:38:24.079Z,48.30
2022-10-19T06:40:51.936Z,55.95
2022-10-19T06:43:19.777Z,47.40
2022-10-19T06:45:48.957Z,44.13
2022-10-19T06:48:16.829Z,45.92
2022-10-19T06:50:44.854Z,40.63
2022-10-19T06:53:12.829Z,43.28
2022-10-19T06:55:40.658Z,43.45
2022-10-19T06:58:08.490Z,39.58
2022-10-19T07:00:36.452Z,36.30
2022-10-19T07:03:05.708Z,36.20
2022-10-19T07:05:33.628Z,36.88
2022-10-19T07:08:01.520Z,32.00
2022-10-19T07:10:29.471Z,44.05
2022-10-19T07:12:57.839Z,33.90
2022-10-19T07:15:25.702Z,34.50
2022-10-19T07:17:54.256Z,30.17
2022-10-19T07:20:24.245Z,32.67
2022-10-19T07:22:52.117Z,30.38
2022-10-19T07:25:19.934Z,27.00
2022-10-19T07:27:47.824Z,28.30
2022-10-19T07:30:15.724Z,24.52
2022-10-19T07:32:46.924Z,26.92
2022-10-19T07:35:15.357Z,23.48
2022-10-19T07:37:44.588Z,23.65
2022-10-19T07:40:13.972Z,23.25
2022-10-19T07:42:41.844Z,20.30
2022-10-19T07:45:10.313Z,27.05
2022-10-19T07:47:38.174Z,24.30
2022-10-19T07:50:06.701Z,25.10
2022-10-19T07:52:36.907Z,29.15
2022-10-19T07:55:07.119Z,27.92
2022-10-19T07:57:34.974Z,30.88
2022-10-19T08:00:03.094Z,29.95
2022-10-19T08:02:39.604Z,31.75
2022-10-19T08:05:18.937Z,36.25
2022-10-19T08:07:47.189Z,32.40
2022-10-19T08:10:16.762Z,33.58
2022-10-19T08:12:44.665Z,32.67
2022-10-19T08:15:12.507Z,30.52
2022-10-19T08:17:40.718Z,31.33
2022-10-19T08:20:09.213Z,30.73
2022-10-19T08:22:37.490Z,28.92
2022-10-19T08:25:06.143Z,35.28
2022-10-19T08:30:04.585Z,33.50
2022-10-19T08:32:32.838Z,35.15
2022-10-19T08:35:00.924Z,34.00
2022-10-19T08:37:40.720Z,39.70
2022-10-19T08:40:19.634Z,36.67
2022-10-19T08:42:54.997Z,33.45
2022-10-19T08:48:24.878Z,39.60
2022-10-19T08:50:54.108Z,45.97
2022-10-19T08:53:31.846Z,39.15
2022-10-19T08:56:15.035Z,40.17
2022-10-19T08:58:58.943Z,36.72
2022-10-19T09:01:37.682Z,31.40
2022-10-19T09:04:11.479Z,32.33
2022-10-19T09:06:49.937Z,42.90
2022-10-19T09:09:20.583Z,37.92
2022-10-19T09:11:50.970Z,39.15
2022-10-19T09:14:26.810Z,42.80
2022-10-19T09:17:03.961Z,36.78
2022-10-19T09:19:32.307Z,40.72
2022-10-19T09:22:05.516Z,38.58
2022-10-19T09:24:40.488Z,39.30
2022-10-19T09:27:17.166Z,43.80
2022-10-19T09:29:51.253Z,39.78
2022-10-19T09:32:21.958Z,44.33
2022-10-19T09:34:52.587Z,38.38
2022-10-19T09:37:26.239Z,40.85
2022-10-19T09:39:55.823Z,39.53
2022-10-19T09:42:29.136Z,43.60
2022-10-19T09:45:00.347Z,41.30
2022-10-19T09:47:35.515Z,42.88
2022-10-19T09:50:19.166Z,40.25
2022-10-19T09:52:47.933Z,33.15
2022-10-19T09:55:29.341Z,42.63
2022-10-19T09:58:02.499Z,47.40
2022-10-19T10:00:37.137Z,36.75
2022-10-19T10:03:07.588Z,38.50
2022-10-19T10:05:37.949Z,42.47
2022-10-19T10:08:13.398Z,38.40
2022-10-19T10:10:45.977Z,36.83
2022-10-19T10:13:19.052Z,38.50
2022-10-19T10:15:50.623Z,35.92
2022-10-19T10:18:20.023Z,33.67
2022-10-19T10:21:07.053Z,45.88
2022-10-19T10:23:37.676Z,29.80
2022-10-19T10:26:16.318Z,33.88
2022-10-19T10:28:49.133Z,26.13
2022-10-19T10:31:22.597Z,19.48
2022-10-19T10:33:56.675Z,18.73
2022-10-19T10:36:28.489Z,14.80
2022-10-19T10:39:04.912Z,14.73
2022-10-19T10:41:38.554Z,17.20
2022-10-19T10:44:10.793Z,12.55
2022-10-19T10:46:51.503Z,13.63
2022-10-19T10:49:23.857Z,13.43
2022-10-19T10:51:56.359Z,13.63
2022-10-19T10:54:26.581Z,12.80
2022-10-19T10:57:16.725Z,12.82
2022-10-19T10:59:55.378Z,17.85
2022-10-19T11:02:41.171Z,15.40
2022-10-19T11:05:14.443Z,15.60
2022-10-19T11:07:46.041Z,14.50
2022-10-19T11:10:22.863Z,14.88
2022-10-19T11:12:55.181Z,13.68
2022-10-19T11:15:27.247Z,13.88
2022-10-19T11:18:03.480Z,13.52
2022-10-19T11:20:33.724Z,12.77
2022-10-19T11:23:15.126Z,14.48
2022-10-19T11:25:54.693Z,16.45
2022-10-19T11:28:36.860Z,14.63
2022-10-19T11:31:13.569Z,12.38
2022-10-19T11:33:54.422Z,13.13
2022-10-19T11:36:39.675Z,13.38
2022-10-19T11:39:28.285Z,13.55
2022-10-19T11:42:08.058Z,14.18
2022-10-19T11:44:52.004Z,14.32
2022-10-19T11:47:35.270Z,18.13
2022-10-19T11:50:20.257Z,14.70
2022-10-19T11:52:56.114Z,16.55
2022-10-19T11:55:36.191Z,17.88
2022-10-19T11:58:13.610Z,14.43
2022-10-19T12:00:50.324Z,12.93
2022-10-19T12:03:41.830Z,17.58
2022-10-19T12:06:18.688Z,13.48
2022-10-19T12:09:05.593Z,13.60
2022-10-19T12:11:48.854Z,13.98
2022-10-19T12:14:19.847Z,14.68
2022-10-19T12:16:51.696Z,14.82
2022-10-19T12:19:22.328Z,15.18
2022-10-19T12:21:54.963Z,11.98
2022-10-19T12:24:25.690Z,15.60
2022-10-19T12:26:55.661Z,15.88
2022-10-19T12:29:26.686Z,13.32
2022-10-19T12:31:57.188Z,16.38
2022-10-19T12:34:35.259Z,16.48
2022-10-19T12:37:12.478Z,16.77
2022-10-19T12:39:47.040Z,13.80
2022-10-19T12:42:23.787Z,14.02
2022-10-19T12:45:11.983Z,15.52
2022-10-19T12:47:39.817Z,16.27
2022-10-19T12:50:08.717Z,13.43
2022-10-19T12:52:42.054Z,16.30
2022-10-19T12:55:34.752Z,15.38
2022-10-19T12:58:06.328Z,14.73
2022-10-19T13:00:36.723Z,16.08
2022-10-19T13:03:08.721Z,17.25
2022-10-19T13:05:37.140Z,18.50
2022-10-19T13:08:10.815Z,15.18
2022-10-19T13:10:41.817Z,13.52
2022-10-19T13:13:56.050Z,22.20
2022-10-19T13:17:01.874Z,19.73
2022-10-19T13:19:30.392Z,14.60
2022-10-19T13:22:27.917Z,15.60
2022-10-19T13:25:26.929Z,15.48
2022-10-19T13:27:56.987Z,16.17
2022-10-19T13:31:05.954Z,25.40
2022-10-19T13:33:50.256Z,16.63
2022-10-19T13:36:19.264Z,19.60
2022-10-19T13:38:49.496Z,22.05
2022-10-19T13:41:25.331Z,17.73
2022-10-19T13:44:04.215Z,22.35
2022-10-19T13:47:00.427Z,16.25
2022-10-19T13:49:57.641Z,23.50
2022-10-19T13:52:47.325Z,18.48
2022-10-19T13:55:47.177Z,18.17
2022-10-19T13:59:03.438Z,16.83
2022-10-19T14:01:45.014Z,24.17
2022-10-19T14:04:22.876Z,16.67
2022-10-19T14:06:54.763Z,17.33
2022-10-19T14:09:58.349Z,16.05
2022-10-19T14:12:28.837Z,15.73
2022-10-19T14:14:58.442Z,15.70
2022-10-19T14:17:30.152Z,17.80
2022-10-19T14:19:59.981Z,14.73
2022-10-19T14:22:30.977Z,18.00
2022-10-19T14:25:04.769Z,14.88
2022-10-19T14:27:33.338Z,17.35
2022-10-19T14:30:03.996Z,14.70
2022-10-19T14:32:35.247Z,17.58
2022-10-19T14:35:06.904Z,14.43
2022-10-19T14:37:36.102Z,14.70
2022-10-19T14:40:08.048Z,14.80
2022-10-19T14:42:42.137Z,15.10
2022-10-19T14:45:21.266Z,13.68
2022-10-19T14:48:01.115Z,16.65
2022-10-19T14:50:41.312Z,17.40
2022-10-19T14:53:22.798Z,13.30
2022-10-19T14:55:54.433Z,13.60
2022-10-19T14:58:24.747Z,13.70
2022-10-19T15:00:55.215Z,20.98
2022-10-19T15:03:26.967Z,15.82
2022-10-19T15:06:00.701Z,14.70
2022-10-19T15:08:37.493Z,15.65
2022-10-19T15:11:07.570Z,15.68
2022-10-19T15:13:41.439Z,15.13
2022-10-19T15:16:32.737Z,14.18
2022-10-19T15:19:04.497Z,14.50
2022-10-19T15:21:33.551Z,14.32
2022-10-19T15:24:27.222Z,19.77
2022-10-19T15:27:08.780Z,15.73
2022-10-19T15:29:37.493Z,17.08
2022-10-19T15:32:24.278Z,13.75
2022-10-19T15:34:52.806Z,16.05
2022-10-19T15:37:23.647Z,13.88
2022-10-19T15:39:53.148Z,13.00
2022-10-19T15:42:40.476Z,13.70
2022-10-19T15:45:31.369Z,12.65
2022-10-19T15:48:28.372Z,11.13
2022-10-19T15:50:57.585Z,14.15
2022-10-19T15:53:26.996Z,15.93
2022-10-19T15:55:54.982Z,12.82
2022-10-19T15:58:22.872Z,19.15
2022-10-19T16:00:50.773Z,16.25
2022-10-19T16:03:20.201Z,13.27
2022-10-19T16:05:48.357Z,17.60
2022-10-19T16:08:16.233Z,17.65
2022-10-19T16:10:44.129Z,15.80
2022-10-19T16:13:12.012Z,18.08
2022-10-19T16:15:40.113Z,19.83
2022-10-19T16:18:08.407Z,17.70
2022-10-19T16:20:40.418Z,20.92
2022-10-19T16:23:08.712Z,19.42
2022-10-19T16:25:36.804Z,15.35
2022-10-19T16:28:04.652Z,20.05
2022-10-19T16:30:32.798Z,19.60
2022-10-19T16:33:00.832Z,20.52
2022-10-19T16:35:29.117Z,21.10
2022-10-19T16:37:59.076Z,19.65
2022-10-19T16:40:26.898Z,27.38
2022-10-19T16:42:56.795Z,23.25
2022-10-19T16:45:24.771Z,20.40
2022-10-19T16:47:53.157Z,27.02
2022-10-19T16:50:21.632Z,21.25
2022-10-19T16:52:58.874Z,21.00
2022-10-19T16:55:29.916Z,23.30
2022-10-19T16:57:58.178Z,24.35
2022-10-19T17:00:26.045Z,23.20
2022-10-19T17:02:53.871Z,21.88
2022-10-19T17:05:21.934Z,27.85
2022-10-19T17:07:49.826Z,24.80
2022-10-19T17:10:18.516Z,31.05
2022-10-19T17:12:47.853Z,25.08
2022-10-19T17:15:41.595Z,23.15
2022-10-19T17:18:03.939Z,25.88
2022-10-19T17:20:33.682Z,23.17
2022-10-19T17:23:01.982Z,23.30
2022-10-19T17:25:29.873Z,25.50
2022-10-19T17:27:59.618Z,27.83
2022-10-19T17:30:27.589Z,30.25
2022-10-19T17:32:55.537Z,32.45
2022-10-19T17:35:23.666Z,24.60
2022-10-19T17:37:51.947Z,27.52
2022-10-19T17:40:19.985Z,25.45
2022-10-19T17:42:47.902Z,27.88
2022-10-19T17:45:17.384Z,26.38
2022-10-19T17:47:45.223Z,31.23
2022-10-19T17:50:13.142Z,35.05
2022-10-19T17:52:41.021Z,28.98
2022-10-19T17:55:12.787Z,30.15
2022-10-19T17:57:41.314Z,30.40
2022-10-19T18:00:09.881Z,32.65
2022-10-19T18:02:39.989Z,33.33
2022-10-19T18:05:08.760Z,29.58
2022-10-19T18:07:36.994Z,32.92
2022-10-19T18:10:05.635Z,31.63
2022-10-19T18:12:33.546Z,32.72
2022-10-19T18:15:01.847Z,37.65
2022-10-19T18:17:29.970Z,38.45
2022-10-19T18:19:59.322Z,29.20
2022-10-19T18:22:27.297Z,35.55
2022-10-19T18:24:55.262Z,34.50
2022-10-19T18:27:23.179Z,32.08
2022-10-19T18:29:51.176Z,34.20
2022-10-19T18:32:19.073Z,31.75
2022-10-19T18:34:47.131Z,33.50
2022-10-19T18:37:16.357Z,31.65
2022-10-19T18:39:44.217Z,30.67
2022-10-19T18:42:13.373Z,25.50
2022-10-19T18:44:41.490Z,30.13
2022-10-19T18:47:09.501Z,28.65
2022-10-19T18:49:37.330Z,29.80
2022-10-19T18:52:05.248Z,31.52
2022-10-19T18:54:34.577Z,28.17
2022-10-19T18:57:02.895Z,28.38
2022-10-19T18:59:31.377Z,28.98
2022-10-19T19:01:59.456Z,23.70
2022-10-19T19:04:27.707Z,27.23
2022-10-19T19:06:55.673Z,29.17
2022-10-19T19:09:23.585Z,17.17
2022-10-19T19:11:58.120Z,20.25
2022-10-19T19:14:26.561Z,21.75
2022-10-19T19:16:54.529Z,19.63
2022-10-19T19:19:24.435Z,19.15
2022-10-19T19:21:52.674Z,21.55
2022-10-19T19:24:22.897Z,23.60
2022-10-19T19:26:54.816Z,23.05
2022-10-19T19:29:24.889Z,24.25
2022-10-19T19:31:53.791Z,18.38
2022-10-19T19:34:21.975Z,19.80
2022-10-19T19:36:50.124Z,23.60
2022-10-19T19:39:20.478Z,20.13
2022-10-19T19:41:48.878Z,18.02
2022-10-19T19:44:18.883Z,16.80
2022-10-19T19:46:47.038Z,23.67
2022-10-19T19:49:15.407Z,22.42
2022-10-19T19:51:43.874Z,23.02
2022-10-19T19:54:12.264Z,17.40
2022-10-19T19:56:42.141Z,19.15
2022-10-19T19:59:11.868Z,19.45
2022-10-19T20:01:41.234Z,19.08
2022-10-19T20:04:09.259Z,17.60
2022-10-19T20:06:39.214Z,22.55
2022-10-19T20:09:08.617Z,15.95
2022-10-19T20:11:41.232Z,17.67
2022-10-19T20:14:10.404Z,23.35
2022-10-19T20:16:38.390Z,19.10
2022-10-19T20:19:10.403Z,17.05
2022-10-19T20:21:38.488Z,18.88
2022-10-19T20:24:06.912Z,19.55
2022-10-19T20:26:34.906Z,15.00
2022-10-19T20:29:03.329Z,16.33
2022-10-19T20:31:33.501Z,16.17
2022-10-19T20:34:01.589Z,16.58
2022-10-19T20:36:30.810Z,17.35
2022-10-19T20:38:59.663Z,19.52
2022-10-19T20:41:29.361Z,17.65
2022-10-19T20:43:57.981Z,17.08
2022-10-19T20:46:27.840Z,22.10
2022-10-19T20:48:57.934Z,16.48
2022-10-19T20:51:31.025Z,16.25
2022-10-19T20:54:03.421Z,14.45
2022-10-19T20:56:33.378Z,19.38
2022-10-19T21:01:38.154Z,14.18
2022-10-19T21:04:09.226Z,24.00
2022-10-19T21:06:39.908Z,22.67
2022-10-19T21:09:10.032Z,18.25
2022-10-19T21:11:40.066Z,15.45
2022-10-19T21:14:10.011Z,16.88
2022-10-19T21:16:39.042Z,17.00
2022-10-19T21:19:11.558Z,21.15
2022-10-19T21:21:41.413Z,18.23
2022-10-19T21:24:13.013Z,24.77
2022-10-19T21:26:42.303Z,16.58
2022-10-19T21:29:12.436Z,16.80
2022-10-19T21:31:44.076Z,17.45
2022-10-19T21:34:16.272Z,13.13
2022-10-19T21:36:44.259Z,15.23
2022-10-19T21:39:13.655Z,20.70
2022-10-19T21:41:41.752Z,16.10
2022-10-19T21:44:09.943Z,16.02
2022-10-19T21:46:37.870Z,14.80
2022-10-19T21:49:05.787Z,17.05
2022-10-19T21:51:37.331Z,15.45
2022-10-19T21:54:06.554Z,19.10
2022-10-19T21:56:36.293Z,13.65
2022-10-19T21:59:04.703Z,15.82
2022-10-19T22:01:38.566Z,21.00
2022-10-19T22:04:12.506Z,16.55
2022-10-19T22:06:40.941Z,18.08
2022-10-19T22:09:10.601Z,16.95
2022-10-19T22:11:40.542Z,16.27
2022-10-19T22:14:08.460Z,14.90
2022-10-19T22:16:37.043Z,17.23
2022-10-19T22:19:06.050Z,22.00
2022-10-19T22:21:35.125Z,18.60
2022-10-19T22:24:05.330Z,17.02
2022-10-19T22:26:34.938Z,16.45
2022-10-19T22:29:06.149Z,21.27
2022-10-19T22:31:35.987Z,23.90
2022-10-19T22:34:06.505Z,18.15
2022-10-19T22:36:34.460Z,16.60
2022-10-19T22:39:02.526Z,21.33
2022-10-19T22:41:30.406Z,20.52
2022-10-19T22:43:58.252Z,20.27
2022-10-19T22:46:27.498Z,17.65
2022-10-19T22:48:55.366Z,25.70
2022-10-19T22:51:23.257Z,23.42
2022-10-19T22:53:51.097Z,26.10
2022-10-19T22:56:18.955Z,17.95
2022-10-19T22:58:46.899Z,19.95
2022-10-19T23:01:16.864Z,20.65
2022-10-19T23:03:46.256Z,27.63
2022-10-19T23:06:16.086Z,16.48
2022-10-19T23:08:45.064Z,21.63
2022-10-19T23:11:13.433Z,21.02
2022-10-19T23:13:41.913Z,20.05
2022-10-19T23:16:10.446Z,24.35
2022-10-19T23:18:40.044Z,19.77
2022-10-19T23:21:11.740Z,19.10
2022-10-19T23:23:39.704Z,28.63
2022-10-19T23:26:10.470Z,23.35
2022-10-19T23:28:40.565Z,23.77
2022-10-19T23:31:10.095Z,21.38
2022-10-19T23:33:41.537Z,26.40
2022-10-19T23:36:14.337Z,23.60
2022-10-19T23:38:42.845Z,24.58
2022-10-19T23:41:11.006Z,22.50
2022-10-19T23:43:39.078Z,20.40
2022-10-19T23:46:07.625Z,22.17
2022-10-19T23:48:35.747Z,21.73
2022-10-19T23:51:06.226Z,23.80
2022-10-19T23:53:40.839Z,22.30
2022-10-19T23:56:11.663Z,17.38
2022-10-19T23:58:39.565Z,20.63
